Williamstown, OH (45897)

7:58 PM EDT on July 03, 2015 (GMT -0400)
KOHARLIN2 | | Change Station
CLOSE
Current Station
Personal Weather Station
Location: ARLINGTON, OH
Elevation: 850 ft
Nearby Weather Stations

Elev 850 ft 40.87 °N, 83.66 °W | Updated 19 seconds ago

Partly Cloudy
Partly Cloudy
69.4 °F
Feels Like 69.4 °F
N
5.0
Wind Variable Wind from NNE
Gusts 12.0 mph

Today
High -- | Low -- °F
--% Chance of Precip.
Yesterday
High -- | Low -- °F
Precip. -- in
6:07 AM 9:09 PM
Waning Gibbous, 95% visible
Pressure 29.88 in
Visibility 10.0 miles
Clouds Clear
Dew Point 59 °F
Humidity 70%
Rainfall 0.00 in
Snow Depth Not available.
UV 1 out of 12
Pollen 3.60 out of 12
Air Quality Not available.
Flu Activity Not available.
METAR KFDY 032353Z AUTO 04010KT 10SM CLR 22/12 A2990 RMK AO2 SLP118 T02170122 10250 20217 56001

More Conditions Fewer Conditions

Pressure 29.88 in
Visibility 10.0 miles
Clouds Clear
Dew Point 59 °F
Humidity 70%
Rainfall 0.00 in
Snow Depth Not available.
UV 1 out of 12
Pollen 3.60 out of 12
Air Quality Not available.
Flu Activity Not available.
METAR KFDY 032353Z AUTO 04010KT 10SM CLR 22/12 A2990 RMK AO2 SLP118 T02170122 10250 20217 56001

More Conditions Fewer Conditions

10-Day Weather Forecast

×

Almanac

Astronomy

Jul. 03, 2015 Rise Set
Actual Time
Civil Twilight
Nautical Twilight
Astronomical Twilight
Moon
Length of Visible Light
Length of Day
Tomorrow will be .
, % of the Moon is Illuminated

Today's Extremes

State Highs State Lows

Community

WunderPhotos

Upload Photos

1,834,823 photos uploaded!

WunderBlogs® & News

Nearby

Air Quality

  Air Quality AQ Index Pollutant
Not available.

Snow Depth

Station Depth Elevation

Earthquake Activity

City Distance Mag. Time & Date
Minimum magnitude displayed is 2.5.

Coastal Water Temperatures

Place Temperature

Stations

Nearby Weather Stations

Station Location Temp. Windchill Dew Point Humidity Wind Precip. Elev Updated Type